Time;durP1;ratioP1;P1;durP2;ratioP2;P2;SDS_P1;SDS_P2;PMS_P1;PMS_P2;Temp;Humidity;BMP_temperature;BMP_pressure;BME280_temperature;BME280_humidity;BME280_pressure;Samples;Min_cycle;Max_cycle;Signal;HPM_P1;HPM_P2
2021/12/31 00:01:17;;;;;;;4.03;3.53;;;;;;;;;;5016126;28;20425;-54
2021/12/31 00:03:43;;;;;;;3.67;3.27;;;;;;;;;;5015508;28;20429;-54
2021/12/31 00:06:09;;;;;;;4.40;2.83;;;;;;;;;;5015368;28;20432;-54
2021/12/31 00:08:35;;;;;;;7.03;2.97;;;;;;;;;;5014317;28;20789;-54
2021/12/31 00:11:01;;;;;;;3.43;2.80;;;;;;;;;;5014897;28;20455;-54
2021/12/31 00:13:28;;;;;;;7.50;3.70;;;;;;;;;;5015419;28;20909;-52
2021/12/31 00:15:54;;;;;;;6.37;3.70;;;;;;;;;;5015219;28;20493;-54
2021/12/31 00:18:21;;;;;;;6.67;3.37;;;;;;;;;;5014277;28;20461;-54
2021/12/31 00:20:47;;;;;;;6.47;3.60;;;;;;;;;;5015113;28;20409;-54
2021/12/31 00:23:15;;;;;;;6.33;3.00;;;;;;;;;;5014654;28;20413;-52
2021/12/31 00:25:42;;;;;;;4.17;2.57;;;;;;;;;;5015060;28;20529;-53
2021/12/31 00:28:09;;;;;;;10.83;3.43;;;;;;;;;;5014398;28;20433;-54
2021/12/31 00:30:36;;;;;;;2.60;2.40;;;;;;;;;;5015144;28;20453;-54
2021/12/31 00:33:02;;;;;;;8.10;2.70;;;;;;;;;;5015291;28;20417;-54
2021/12/31 00:35:29;;;;;;;2.60;2.27;;;;;;;;;;5014845;28;20893;-52
2021/12/31 00:37:55;;;;;;;4.70;2.40;;;;;;;;;;5014195;28;20462;-54
2021/12/31 00:40:21;;;;;;;3.20;2.90;;;;;;;;;;5014249;28;20479;-54
2021/12/31 00:42:47;;;;;;;7.40;3.30;;;;;;;;;;5014368;28;20815;-53
2021/12/31 00:45:15;;;;;;;3.30;2.30;;;;;;;;;;5014616;28;20415;-53
2021/12/31 00:47:41;;;;;;;3.17;2.87;;;;;;;;;;5014374;28;20420;-54
2021/12/31 00:50:08;;;;;;;4.23;2.23;;;;;;;;;;5014629;28;20406;-52
2021/12/31 00:52:34;;;;;;;5.00;2.20;;;;;;;;;;5014525;28;20479;-53
2021/12/31 00:55:00;;;;;;;4.90;1.90;;;;;;;;;;5014599;28;20902;-54
2021/12/31 00:57:26;;;;;;;4.30;2.50;;;;;;;;;;5014379;28;20810;-53
2021/12/31 00:59:52;;;;;;;6.50;2.40;;;;;;;;;;5014347;28;20398;-53
2021/12/31 01:02:20;;;;;;;6.50;3.30;;;;;;;;;;5014215;28;20904;-54
2021/12/31 01:04:46;;;;;;;3.97;2.10;;;;;;;;;;5014155;28;20417;-54
2021/12/31 01:07:12;;;;;;;7.63;2.57;;;;;;;;;;5014305;28;20517;-54
2021/12/31 01:09:38;;;;;;;20.37;2.77;;;;;;;;;;5014330;28;20473;-52
2021/12/31 01:12:07;;;;;;;3.73;2.53;;;;;;;;;;5014341;28;20399;-54
2021/12/31 01:14:37;;;;;;;6.10;2.23;;;;;;;;;;5014620;28;20770;-53
2021/12/31 01:17:07;;;;;;;5.47;2.10;;;;;;;;;;5014206;28;20414;-52
2021/12/31 01:19:48;;;;;;;2.53;2.33;;;;;;;;;;5014387;28;20409;-54
2021/12/31 01:22:19;;;;;;;4.63;2.80;;;;;;;;;;5014301;28;20416;-54
2021/12/31 01:24:45;;;;;;;2.20;2.10;;;;;;;;;;5013645;28;20921;-53
2021/12/31 01:27:12;;;;;;;3.03;1.80;;;;;;;;;;5013808;28;20434;-54
2021/12/31 01:29:38;;;;;;;3.83;2.47;;;;;;;;;;5014150;28;20418;-53
2021/12/31 01:32:04;;;;;;;5.93;2.43;;;;;;;;;;5014195;28;20890;-53
2021/12/31 01:34:30;;;;;;;2.60;2.27;;;;;;;;;;5013889;28;20406;-53
2021/12/31 01:36:56;;;;;;;3.73;2.20;;;;;;;;;;5013108;28;20410;-53
2021/12/31 01:39:23;;;;;;;3.40;2.40;;;;;;;;;;5013396;28;20405;-53
2021/12/31 01:41:49;;;;;;;3.53;2.00;;;;;;;;;;5013057;28;20415;-53
2021/12/31 01:44:15;;;;;;;5.77;2.60;;;;;;;;;;5013681;28;21095;-54
2021/12/31 01:46:54;;;;;;;4.03;2.50;;;;;;;;;;5013291;28;20398;-54
2021/12/31 01:49:22;;;;;;;4.07;2.47;;;;;;;;;;5013567;28;20412;-54
2021/12/31 01:51:48;;;;;;;4.57;2.40;;;;;;;;;;5013242;28;20402;-54
2021/12/31 01:54:14;;;;;;;6.10;2.37;;;;;;;;;;5013284;28;20460;-54
2021/12/31 01:56:40;;;;;;;9.57;2.43;;;;;;;;;;5013349;28;20445;-54
2021/12/31 01:59:07;;;;;;;2.80;2.27;;;;;;;;;;5013032;28;20457;-53
2021/12/31 02:01:33;;;;;;;4.67;2.30;;;;;;;;;;5013372;28;20829;-53
2021/12/31 02:03:59;;;;;;;3.70;2.10;;;;;;;;;;5012581;28;20406;-54
2021/12/31 02:06:25;;;;;;;2.63;2.30;;;;;;;;;;5012561;28;20406;-54
2021/12/31 02:08:51;;;;;;;8.07;2.40;;;;;;;;;;5013025;28;20457;-54
2021/12/31 02:11:18;;;;;;;4.17;3.10;;;;;;;;;;5012845;28;20411;-54
2021/12/31 02:13:44;;;;;;;3.93;2.27;;;;;;;;;;5013634;28;20416;-54
2021/12/31 02:16:10;;;;;;;2.53;2.33;;;;;;;;;;5013204;28;20407;-54
2021/12/31 02:18:36;;;;;;;1.87;1.77;;;;;;;;;;5012416;28;20459;-54
2021/12/31 02:21:07;;;;;;;3.40;2.20;;;;;;;;;;5012912;28;20407;-54
2021/12/31 02:26:37;;;;;;;4.80;2.60;;;;;;;;;;5012444;28;20370;-54
2021/12/31 02:29:03;;;;;;;9.73;2.50;;;;;;;;;;5012879;28;20913;-54
2021/12/31 02:31:29;;;;;;;2.67;2.47;;;;;;;;;;5013014;28;20432;-54
2021/12/31 02:33:55;;;;;;;3.30;2.37;;;;;;;;;;5016013;28;20445;-54
2021/12/31 02:36:21;;;;;;;4.33;2.00;;;;;;;;;;5017166;28;20404;-54
2021/12/31 02:38:47;;;;;;;4.37;1.93;;;;;;;;;;5016086;28;20455;-54
2021/12/31 02:41:13;;;;;;;4.40;2.30;;;;;;;;;;5016691;28;20502;-54
2021/12/31 02:43:39;;;;;;;3.47;2.10;;;;;;;;;;5016695;28;20494;-53
2021/12/31 02:46:05;;;;;;;6.50;1.83;;;;;;;;;;5016908;28;20401;-53
2021/12/31 02:48:31;;;;;;;4.00;2.47;;;;;;;;;;5016273;28;20440;-53
2021/12/31 02:50:58;;;;;;;2.83;1.97;;;;;;;;;;5016757;28;20776;-53
2021/12/31 02:53:26;;;;;;;2.20;2.00;;;;;;;;;;5016778;28;20758;-54
2021/12/31 02:56:04;;;;;;;2.10;1.90;;;;;;;;;;5017321;28;20403;-54
2021/12/31 02:58:31;;;;;;;2.63;1.70;;;;;;;;;;5015996;28;20469;-53
2021/12/31 03:00:57;;;;;;;4.00;2.17;;;;;;;;;;5016305;28;20403;-54
2021/12/31 03:03:24;;;;;;;2.80;1.93;;;;;;;;;;4998838;28;20465;-53
2021/12/31 03:05:53;;;;;;;3.00;2.07;;;;;;;;;;5015920;28;20405;-53
2021/12/31 03:08:19;;;;;;;2.40;1.97;;;;;;;;;;5015714;28;20437;-53
2021/12/31 03:10:46;;;;;;;3.50;1.63;;;;;;;;;;5016035;28;20497;-54
2021/12/31 03:13:13;;;;;;;4.40;2.17;;;;;;;;;;5016125;28;20641;-54
2021/12/31 03:15:40;;;;;;;2.37;2.17;;;;;;;;;;5016116;28;20412;-53
2021/12/31 03:18:06;;;;;;;3.60;2.37;;;;;;;;;;5015435;28;20457;-54
2021/12/31 03:20:42;;;;;;;1.80;1.70;;;;;;;;;;5016112;28;20398;-54
2021/12/31 03:23:09;;;;;;;2.27;1.90;;;;;;;;;;5016078;28;20397;-54
2021/12/31 03:25:35;;;;;;;3.23;2.10;;;;;;;;;;5016062;28;20762;-54
2021/12/31 03:28:01;;;;;;;3.20;2.17;;;;;;;;;;5015592;28;20422;-54
2021/12/31 03:30:27;;;;;;;3.10;2.27;;;;;;;;;;5015835;28;20417;-54
2021/12/31 03:32:53;;;;;;;4.50;2.03;;;;;;;;;;5015847;28;20399;-54
2021/12/31 03:35:19;;;;;;;2.80;2.00;;;;;;;;;;5016172;28;20796;-54
2021/12/31 03:37:46;;;;;;;3.00;2.17;;;;;;;;;;5015198;28;20872;-54
2021/12/31 03:40:12;;;;;;;4.30;1.80;;;;;;;;;;5015478;28;20458;-54
2021/12/31 03:42:39;;;;;;;2.27;1.90;;;;;;;;;;5015864;28;20443;-54
2021/12/31 03:45:06;;;;;;;4.33;1.87;;;;;;;;;;5015380;28;20433;-54
2021/12/31 03:47:31;;;;;;;3.50;1.90;;;;;;;;;;5015276;28;20454;-54
2021/12/31 03:49:57;;;;;;;2.63;1.80;;;;;;;;;;5015523;28;20417;-54
2021/12/31 03:52:23;;;;;;;3.00;1.93;;;;;;;;;;5015273;28;20407;-54
2021/12/31 03:54:49;;;;;;;3.13;1.83;;;;;;;;;;5014942;28;20414;-54
2021/12/31 03:57:15;;;;;;;2.03;1.93;;;;;;;;;;5014596;28;20462;-53
2021/12/31 03:59:41;;;;;;;2.20;2.00;;;;;;;;;;5015269;28;20544;-54
2021/12/31 04:02:07;;;;;;;2.20;2.00;;;;;;;;;;5014943;28;20902;-54
2021/12/31 04:04:33;;;;;;;4.63;1.90;;;;;;;;;;5014921;28;20505;-54
2021/12/31 04:06:59;;;;;;;1.77;1.63;;;;;;;;;;5014608;28;20469;-55
2021/12/31 04:09:25;;;;;;;2.50;1.70;;;;;;;;;;5014936;28;20777;-54
2021/12/31 04:11:51;;;;;;;3.97;1.77;;;;;;;;;;5014697;28;20401;-53
2021/12/31 04:14:17;;;;;;;3.53;1.70;;;;;;;;;;5014776;28;20404;-54
2021/12/31 04:16:43;;;;;;;3.20;1.73;;;;;;;;;;5014351;28;20811;-54
2021/12/31 04:19:09;;;;;;;2.07;1.40;;;;;;;;;;5014708;28;20569;-53
2021/12/31 04:21:35;;;;;;;3.33;1.47;;;;;;;;;;5014670;28;20402;-52
2021/12/31 04:24:13;;;;;;;3.93;1.97;;;;;;;;;;5015093;28;20409;-53
2021/12/31 04:26:40;;;;;;;3.60;2.10;;;;;;;;;;5014513;28;20399;-51
2021/12/31 04:29:06;;;;;;;2.00;1.80;;;;;;;;;;5014347;28;20487;-53
2021/12/31 04:31:32;;;;;;;2.93;1.83;;;;;;;;;;5014257;28;20986;-53
2021/12/31 04:33:59;;;;;;;4.40;2.47;;;;;;;;;;5014665;28;20497;-54
2021/12/31 04:36:25;;;;;;;2.87;1.47;;;;;;;;;;5014595;28;20442;-55
2021/12/31 04:38:51;;;;;;;1.77;1.63;;;;;;;;;;5014161;28;20483;-54
2021/12/31 04:41:17;;;;;;;1.80;1.70;;;;;;;;;;5014278;28;20910;-54
2021/12/31 04:43:43;;;;;;;4.37;2.10;;;;;;;;;;5014067;28;20406;-53
2021/12/31 04:46:10;;;;;;;1.70;1.60;;;;;;;;;;5014368;28;20410;-54
2021/12/31 04:48:36;;;;;;;2.53;1.90;;;;;;;;;;5014062;28;20430;-54
2021/12/31 04:51:02;;;;;;;1.97;1.77;;;;;;;;;;5014503;28;20409;-54
2021/12/31 04:53:28;;;;;;;8.50;2.17;;;;;;;;;;5014406;28;20485;-54
2021/12/31 04:55:54;;;;;;;2.60;1.40;;;;;;;;;;5013497;28;20410;-54
2021/12/31 04:58:20;;;;;;;2.23;1.60;;;;;;;;;;5013672;28;20454;-54
2021/12/31 05:00:46;;;;;;;3.23;1.83;;;;;;;;;;5014046;28;20408;-54
2021/12/31 05:03:14;;;;;;;2.53;2.00;;;;;;;;;;5014052;28;20922;-54
2021/12/31 05:05:40;;;;;;;4.03;1.70;;;;;;;;;;5013828;28;20898;-54
2021/12/31 05:08:06;;;;;;;2.20;1.87;;;;;;;;;;5013548;28;20433;-53
2021/12/31 05:10:33;;;;;;;2.83;2.20;;;;;;;;;;5013344;28;20434;-54
2021/12/31 05:12:59;;;;;;;6.63;2.30;;;;;;;;;;5013561;28;20418;-53
2021/12/31 05:15:27;;;;;;;2.80;1.93;;;;;;;;;;5013326;28;20464;-54
2021/12/31 05:17:54;;;;;;;1.70;1.60;;;;;;;;;;5012908;28;20956;-54
2021/12/31 05:20:20;;;;;;;2.13;1.40;;;;;;;;;;5013042;28;20409;-54
2021/12/31 05:22:46;;;;;;;2.43;1.70;;;;;;;;;;5013276;28;20407;-54
2021/12/31 05:25:12;;;;;;;3.17;1.83;;;;;;;;;;5013027;28;20484;-54
2021/12/31 05:27:38;;;;;;;3.20;1.90;;;;;;;;;;5012642;28;20496;-54
2021/12/31 05:30:05;;;;;;;3.80;1.63;;;;;;;;;;5013187;28;20442;-54
2021/12/31 05:32:31;;;;;;;1.80;1.70;;;;;;;;;;5012886;28;20410;-53
2021/12/31 05:34:57;;;;;;;2.07;1.67;;;;;;;;;;5012664;28;20410;-53
2021/12/31 05:37:23;;;;;;;3.37;1.87;;;;;;;;;;5012299;28;20523;-54
2021/12/31 05:39:49;;;;;;;4.17;1.60;;;;;;;;;;5012502;28;20993;-54
2021/12/31 05:42:15;;;;;;;2.10;1.73;;;;;;;;;;5012742;28;20403;-54
2021/12/31 05:44:41;;;;;;;1.87;1.77;;;;;;;;;;5012743;28;20434;-54
2021/12/31 05:47:07;;;;;;;4.17;1.77;;;;;;;;;;5012353;28;20967;-54
2021/12/31 05:49:33;;;;;;;1.50;1.40;;;;;;;;;;5012555;28;20407;-53
2021/12/31 05:51:59;;;;;;;2.60;1.30;;;;;;;;;;5012629;28;20450;-53
2021/12/31 05:54:25;;;;;;;2.00;1.70;;;;;;;;;;5012483;28;20403;-53
2021/12/31 05:56:51;;;;;;;1.70;1.60;;;;;;;;;;5012099;28;20440;-52
2021/12/31 05:59:17;;;;;;;2.10;1.60;;;;;;;;;;5012313;28;20541;-52
2021/12/31 06:01:43;;;;;;;2.40;1.80;;;;;;;;;;5012292;28;20973;-53
2021/12/31 06:04:09;;;;;;;4.27;1.83;;;;;;;;;;5012448;28;21002;-51
2021/12/31 06:06:35;;;;;;;1.63;1.53;;;;;;;;;;5011881;28;20615;-53
2021/12/31 06:09:01;;;;;;;2.17;1.97;;;;;;;;;;5012062;28;20427;-54
2021/12/31 06:11:28;;;;;;;2.60;1.53;;;;;;;;;;5012988;28;20520;-54
2021/12/31 06:14:00;;;;;;;1.60;1.50;;;;;;;;;;5012519;28;20751;-54
2021/12/31 06:16:26;;;;;;;3.60;1.83;;;;;;;;;;4994772;28;20415;-54
2021/12/31 06:18:52;;;;;;;1.93;1.40;;;;;;;;;;5011990;28;20465;-54
2021/12/31 06:21:18;;;;;;;2.07;1.80;;;;;;;;;;5012244;28;20407;-54
2021/12/31 06:23:44;;;;;;;1.73;1.63;;;;;;;;;;5012067;28;20406;-54
2021/12/31 06:26:10;;;;;;;2.00;1.80;;;;;;;;;;5012162;28;20959;-53
2021/12/31 06:28:36;;;;;;;2.40;2.00;;;;;;;;;;5011872;28;20825;-54
2021/12/31 06:31:02;;;;;;;1.60;1.50;;;;;;;;;;5012057;28;20406;-54
2021/12/31 06:33:28;;;;;;;3.63;1.67;;;;;;;;;;5012094;28;20460;-54
2021/12/31 06:35:54;;;;;;;1.80;1.70;;;;;;;;;;5011986;28;20439;-54
2021/12/31 06:38:20;;;;;;;2.23;2.03;;;;;;;;;;5011400;28;20455;-53
2021/12/31 06:40:46;;;;;;;5.37;1.80;;;;;;;;;;5012295;28;20421;-52
2021/12/31 06:43:12;;;;;;;3.53;1.90;;;;;;;;;;5012159;28;20894;-54
2021/12/31 06:45:38;;;;;;;3.80;1.90;;;;;;;;;;5011939;28;20402;-53
2021/12/31 06:48:05;;;;;;;3.43;1.60;;;;;;;;;;5011649;28;20802;-52
2021/12/31 06:50:31;;;;;;;2.00;1.80;;;;;;;;;;5012373;28;20414;-54
2021/12/31 06:52:57;;;;;;;1.70;1.60;;;;;;;;;;5011699;28;20437;-54
2021/12/31 06:55:23;;;;;;;1.87;1.60;;;;;;;;;;5011682;28;20406;-54
2021/12/31 06:57:49;;;;;;;2.03;1.83;;;;;;;;;;5011278;28;20453;-54
2021/12/31 07:00:16;;;;;;;2.60;1.50;;;;;;;;;;5011925;28;20454;-52
2021/12/31 07:02:42;;;;;;;2.03;1.70;;;;;;;;;;5012172;28;20775;-53
2021/12/31 07:05:08;;;;;;;2.10;2.00;;;;;;;;;;5012697;28;20893;-52
2021/12/31 07:07:34;;;;;;;4.07;2.00;;;;;;;;;;5012016;28;20786;-53
2021/12/31 07:10:00;;;;;;;3.80;2.10;;;;;;;;;;5012310;28;20406;-53
2021/12/31 07:12:27;;;;;;;4.00;2.10;;;;;;;;;;5011966;28;20906;-52
2021/12/31 07:14:53;;;;;;;4.27;1.90;;;;;;;;;;5011059;28;20441;-52
2021/12/31 07:17:19;;;;;;;2.53;1.93;;;;;;;;;;5010584;28;20465;-52
2021/12/31 07:19:45;;;;;;;2.23;2.03;;;;;;;;;;5013483;28;20430;-51
2021/12/31 07:22:11;;;;;;;2.13;1.77;;;;;;;;;;5014704;28;20405;-54
2021/12/31 07:24:37;;;;;;;2.60;2.10;;;;;;;;;;5014221;28;20460;-54
2021/12/31 07:27:03;;;;;;;2.53;1.80;;;;;;;;;;5014235;28;20489;-53
2021/12/31 07:29:29;;;;;;;2.40;2.20;;;;;;;;;;5015010;28;20417;-54
2021/12/31 07:31:55;;;;;;;1.90;1.80;;;;;;;;;;5014571;28;20405;-54
2021/12/31 07:34:21;;;;;;;3.30;2.50;;;;;;;;;;5014964;28;20529;-52
2021/12/31 07:36:47;;;;;;;2.80;1.80;;;;;;;;;;5014438;28;20421;-52
2021/12/31 07:39:14;;;;;;;3.83;1.87;;;;;;;;;;5015227;28;20901;-54
2021/12/31 07:41:40;;;;;;;2.17;1.97;;;;;;;;;;5014899;28;20442;-54
2021/12/31 07:44:06;;;;;;;2.37;2.17;;;;;;;;;;5014913;28;20379;-51
2021/12/31 07:46:33;;;;;;;4.07;2.47;;;;;;;;;;5014411;28;20409;-53
2021/12/31 07:48:59;;;;;;;3.47;2.20;;;;;;;;;;5014748;28;20396;-53
2021/12/31 07:51:25;;;;;;;6.40;1.87;;;;;;;;;;5014734;28;20889;-54
2021/12/31 07:53:51;;;;;;;6.87;2.20;;;;;;;;;;5014802;28;20420;-53
2021/12/31 07:56:19;;;;;;;4.93;3.63;;;;;;;;;;5014512;28;20744;-53
2021/12/31 07:58:48;;;;;;;2.80;2.57;;;;;;;;;;5014442;28;20964;-53
2021/12/31 08:01:16;;;;;;;4.53;2.93;;;;;;;;;;5014760;28;20409;-54
2021/12/31 08:03:42;;;;;;;4.53;2.30;;;;;;;;;;5014579;28;20397;-53
2021/12/31 08:06:08;;;;;;;3.70;2.67;;;;;;;;;;5014519;28;20831;-54
2021/12/31 08:08:34;;;;;;;2.70;2.00;;;;;;;;;;5014189;28;20787;-53
2021/12/31 08:11:00;;;;;;;4.23;2.30;;;;;;;;;;5014407;28;20402;-54
2021/12/31 08:13:27;;;;;;;2.37;2.10;;;;;;;;;;5014166;28;20810;-54
2021/12/31 08:15:53;;;;;;;5.03;2.53;;;;;;;;;;5014243;28;20410;-53
2021/12/31 08:18:19;;;;;;;6.87;2.53;;;;;;;;;;5014320;28;20451;-53
2021/12/31 08:20:45;;;;;;;3.10;2.10;;;;;;;;;;5014366;28;20395;-53
2021/12/31 08:23:12;;;;;;;2.30;2.07;;;;;;;;;;5014059;28;20941;-54
2021/12/31 08:25:38;;;;;;;3.20;2.17;;;;;;;;;;5014187;28;20901;-54
2021/12/31 08:28:05;;;;;;;2.10;2.00;;;;;;;;;;5013678;28;20428;-53
2021/12/31 08:30:31;;;;;;;2.60;2.40;;;;;;;;;;5013361;28;20845;-54
2021/12/31 08:32:58;;;;;;;2.80;2.33;;;;;;;;;;5014564;28;20410;-54
2021/12/31 08:35:27;;;;;;;2.13;1.50;;;;;;;;;;5014619;28;20403;-52
2021/12/31 08:37:53;;;;;;;4.80;2.13;;;;;;;;;;5014303;28;20463;-54
2021/12/31 08:40:20;;;;;;;2.13;2.00;;;;;;;;;;5014746;28;20500;-54
2021/12/31 08:42:48;;;;;;;3.00;2.80;;;;;;;;;;5014644;28;20397;-52
2021/12/31 08:45:14;;;;;;;4.90;1.80;;;;;;;;;;5014579;28;20416;-53
2021/12/31 08:47:40;;;;;;;2.80;2.60;;;;;;;;;;5013804;28;20477;-53
2021/12/31 08:50:07;;;;;;;4.23;2.00;;;;;;;;;;5014366;28;20407;-54
2021/12/31 08:52:33;;;;;;;2.13;1.83;;;;;;;;;;5014180;28;20406;-53
2021/12/31 08:54:58;;;;;;;2.60;2.40;;;;;;;;;;5014214;28;20408;-54
2021/12/31 08:57:24;;;;;;;5.83;2.20;;;;;;;;;;5013871;28;20451;-50
2021/12/31 08:59:50;;;;;;;2.50;2.27;;;;;;;;;;5013241;28;20786;-50
2021/12/31 09:02:16;;;;;;;1.63;1.53;;;;;;;;;;5013304;28;20832;-50
2021/12/31 09:04:43;;;;;;;3.20;2.10;;;;;;;;;;5013255;28;20399;-51
2021/12/31 09:07:09;;;;;;;3.73;1.97;;;;;;;;;;5012943;28;20426;-51
2021/12/31 09:09:35;;;;;;;2.30;2.10;;;;;;;;;;5013150;28;20886;-53
2021/12/31 09:12:01;;;;;;;2.20;1.80;;;;;;;;;;5013080;28;20505;-50
2021/12/31 09:14:27;;;;;;;2.57;2.17;;;;;;;;;;5013004;28;20407;-52
2021/12/31 09:16:53;;;;;;;2.27;2.17;;;;;;;;;;5012653;28;20406;-50
2021/12/31 09:19:19;;;;;;;2.80;2.27;;;;;;;;;;5012952;28;21014;-51
2021/12/31 09:21:46;;;;;;;2.20;2.00;;;;;;;;;;5012915;28;20399;-50
2021/12/31 09:24:12;;;;;;;2.67;2.33;;;;;;;;;;4995329;28;20418;-51
2021/12/31 09:26:38;;;;;;;2.90;2.17;;;;;;;;;;5012498;28;20885;-51
2021/12/31 09:29:04;;;;;;;4.40;2.23;;;;;;;;;;5012691;28;20498;-52
2021/12/31 09:31:30;;;;;;;2.37;1.93;;;;;;;;;;5012725;28;20973;-51
2021/12/31 09:33:56;;;;;;;2.90;2.70;;;;;;;;;;5012772;28;20495;-50
2021/12/31 09:36:23;;;;;;;2.57;1.80;;;;;;;;;;5012941;28;20769;-51
2021/12/31 09:38:49;;;;;;;3.23;1.70;;;;;;;;;;5012252;28;20487;-51
2021/12/31 09:41:15;;;;;;;3.90;2.10;;;;;;;;;;5012253;28;20484;-50
2021/12/31 09:43:45;;;;;;;3.43;2.07;;;;;;;;;;5008706;28;20512;-51
2021/12/31 09:46:11;;;;;;;2.00;1.47;;;;;;;;;;5007768;28;20418;-51
2021/12/31 09:48:39;;;;;;;2.10;1.90;;;;;;;;;;5011725;28;20426;-50
2021/12/31 09:51:07;;;;;;;2.30;1.90;;;;;;;;;;5012158;28;20419;-50
2021/12/31 09:53:33;;;;;;;2.33;1.90;;;;;;;;;;5012255;28;20493;-51
2021/12/31 09:55:59;;;;;;;2.20;1.70;;;;;;;;;;5012256;28;20407;-51
2021/12/31 09:58:26;;;;;;;3.13;1.73;;;;;;;;;;5008000;28;20461;-53
2021/12/31 10:00:57;;;;;;;3.40;1.70;;;;;;;;;;5011870;28;20419;-51
2021/12/31 10:03:25;;;;;;;2.30;1.60;;;;;;;;;;5012013;28;20395;-51
2021/12/31 10:05:56;;;;;;;5.43;1.87;;;;;;;;;;5011612;28;20415;-52
2021/12/31 10:08:26;;;;;;;2.03;1.83;;;;;;;;;;5012530;28;20456;-52
2021/12/31 10:11:18;;;;;;;2.17;1.97;;;;;;;;;;5012073;28;20434;-53
2021/12/31 10:13:45;;;;;;;2.40;2.07;;;;;;;;;;5009348;28;20445;-54
2021/12/31 10:16:31;;;;;;;2.40;1.87;;;;;;;;;;5012047;28;20411;-53
2021/12/31 10:19:08;;;;;;;4.13;1.70;;;;;;;;;;5011012;28;20455;-53
2021/12/31 10:21:40;;;;;;;2.57;2.27;;;;;;;;;;5011884;28;20450;-53
2021/12/31 10:24:22;;;;;;;2.63;2.00;;;;;;;;;;5012492;28;20876;-51
2021/12/31 10:26:48;;;;;;;2.90;2.30;;;;;;;;;;5011055;28;20902;-50
2021/12/31 10:29:14;;;;;;;2.03;1.93;;;;;;;;;;5011773;28;20465;-50
2021/12/31 10:31:47;;;;;;;1.90;1.80;;;;;;;;;;5011510;28;20815;-50
2021/12/31 10:34:31;;;;;;;2.50;1.70;;;;;;;;;;5011420;28;20904;-51
2021/12/31 10:36:59;;;;;;;5.33;1.97;;;;;;;;;;5011509;28;20502;-51
2021/12/31 10:39:26;;;;;;;2.63;1.87;;;;;;;;;;5010331;28;20493;-51
2021/12/31 10:41:58;;;;;;;3.47;1.60;;;;;;;;;;5011047;28;20400;-51
2021/12/31 10:44:25;;;;;;;3.40;2.20;;;;;;;;;;5011961;28;20446;-53
2021/12/31 10:47:07;;;;;;;2.80;1.70;;;;;;;;;;5011317;28;20411;-51
2021/12/31 10:49:35;;;;;;;1.93;1.80;;;;;;;;;;5011723;28;20840;-51
2021/12/31 10:52:05;;;;;;;2.70;2.20;;;;;;;;;;5009326;28;20423;-53
2021/12/31 10:54:59;;;;;;;5.30;2.13;;;;;;;;;;4994617;28;20411;-53
2021/12/31 10:57:34;;;;;;;2.90;2.23;;;;;;;;;;5008058;28;20442;-53
2021/12/31 11:00:01;;;;;;;2.63;2.37;;;;;;;;;;5015508;28;20436;-53
2021/12/31 11:02:27;;;;;;;1.77;1.67;;;;;;;;;;5015629;28;20720;-54
2021/12/31 11:04:53;;;;;;;5.53;1.80;;;;;;;;;;5013297;28;20403;-54
2021/12/31 11:07:20;;;;;;;5.57;2.17;;;;;;;;;;5015142;28;20496;-54
2021/12/31 11:09:46;;;;;;;6.73;2.03;;;;;;;;;;5015566;28;20399;-54
2021/12/31 11:12:13;;;;;;;3.20;1.80;;;;;;;;;;5015266;28;20826;-54
2021/12/31 11:14:39;;;;;;;3.00;1.80;;;;;;;;;;5015415;28;20455;-54
2021/12/31 11:17:05;;;;;;;2.23;2.07;;;;;;;;;;5015091;28;20403;-53
2021/12/31 11:19:31;;;;;;;1.73;1.63;;;;;;;;;;5015162;28;20605;-53
2021/12/31 11:21:57;;;;;;;3.00;1.90;;;;;;;;;;5015121;28;20410;-53
2021/12/31 11:24:36;;;;;;;3.30;1.90;;;;;;;;;;5016306;28;20434;-54
2021/12/31 11:27:21;;;;;;;2.60;2.40;;;;;;;;;;5015388;28;20398;-54
2021/12/31 11:29:47;;;;;;;1.93;1.70;;;;;;;;;;5014241;28;20902;-54
2021/12/31 11:32:12;;;;;;;2.33;2.13;;;;;;;;;;5014388;28;20410;-54
2021/12/31 11:34:38;;;;;;;2.13;2.00;;;;;;;;;;5015058;28;20405;-54
2021/12/31 11:37:04;;;;;;;1.53;1.43;;;;;;;;;;5014621;28;20512;-53
2021/12/31 11:39:33;;;;;;;2.00;1.90;;;;;;;;;;5014959;28;20873;-53
2021/12/31 11:42:03;;;;;;;2.10;2.00;;;;;;;;;;5014947;28;20453;-54
2021/12/31 11:44:31;;;;;;;1.97;1.70;;;;;;;;;;5014794;28;20409;-53
2021/12/31 11:47:09;;;;;;;1.93;1.80;;;;;;;;;;4996855;28;20412;-54
2021/12/31 11:49:35;;;;;;;2.70;2.27;;;;;;;;;;5014822;28;20445;-54
2021/12/31 11:52:05;;;;;;;1.70;1.60;;;;;;;;;;5015019;28;20406;-54
2021/12/31 11:54:31;;;;;;;3.23;2.00;;;;;;;;;;5014695;28;20410;-53
2021/12/31 11:56:59;;;;;;;2.10;2.00;;;;;;;;;;5014172;28;20772;-54
2021/12/31 11:59:33;;;;;;;2.80;2.53;;;;;;;;;;5014717;28;20465;-54
2021/12/31 12:02:07;;;;;;;1.90;1.80;;;;;;;;;;5014651;28;20471;-53
2021/12/31 12:04:34;;;;;;;2.00;1.90;;;;;;;;;;5026061;28;20502;-53
2021/12/31 12:07:06;;;;;;;2.17;2.07;;;;;;;;;;5033833;28;20406;-53
2021/12/31 12:09:35;;;;;;;2.03;1.73;;;;;;;;;;5033817;28;20381;-53
2021/12/31 12:12:14;;;;;;;1.80;1.70;;;;;;;;;;5034192;28;20774;-53
2021/12/31 12:14:41;;;;;;;3.03;2.20;;;;;;;;;;5034335;28;20413;-54
2021/12/31 12:17:08;;;;;;;2.37;2.17;;;;;;;;;;5034174;28;20432;-53
2021/12/31 12:19:46;;;;;;;4.60;2.50;;;;;;;;;;5034182;28;20450;-53
2021/12/31 12:22:33;;;;;;;2.23;1.83;;;;;;;;;;5017014;28;20987;-53
2021/12/31 12:25:01;;;;;;;3.10;2.10;;;;;;;;;;5035070;28;20419;-54
2021/12/31 12:27:27;;;;;;;2.40;2.30;;;;;;;;;;5034437;28;20414;-54
2021/12/31 12:29:54;;;;;;;3.10;2.10;;;;;;;;;;5034894;28;20407;-54
2021/12/31 12:34:59;;;;;;;2.23;2.00;;;;;;;;;;5035321;28;20491;-54
2021/12/31 12:37:30;;;;;;;2.37;1.77;;;;;;;;;;5034431;28;20430;-54
2021/12/31 12:39:59;;;;;;;2.00;1.90;;;;;;;;;;5016785;28;20433;-54
2021/12/31 12:42:25;;;;;;;2.73;2.53;;;;;;;;;;5014354;28;20408;-53
2021/12/31 12:45:17;;;;;;;2.37;1.80;;;;;;;;;;5014583;28;20891;-54
2021/12/31 12:47:43;;;;;;;1.83;1.70;;;;;;;;;;5011733;28;20435;-53
2021/12/31 12:50:11;;;;;;;4.03;1.83;;;;;;;;;;5014159;28;20402;-53
2021/12/31 12:52:37;;;;;;;2.00;1.90;;;;;;;;;;5013869;28;20415;-53
2021/12/31 12:55:13;;;;;;;6.73;1.97;;;;;;;;;;5013350;28;20893;-53
2021/12/31 12:57:40;;;;;;;1.97;1.87;;;;;;;;;;5013086;28;20404;-53
2021/12/31 13:00:07;;;;;;;2.27;2.07;;;;;;;;;;5013500;28;20988;-53
2021/12/31 13:02:43;;;;;;;2.83;1.90;;;;;;;;;;5011617;28;20987;-54
2021/12/31 13:05:11;;;;;;;1.97;1.87;;;;;;;;;;5011408;28;20410;-53
2021/12/31 13:07:37;;;;;;;2.07;1.90;;;;;;;;;;5011418;28;20501;-53
2021/12/31 13:10:07;;;;;;;1.80;1.70;;;;;;;;;;5013267;28;20454;-53
2021/12/31 13:12:34;;;;;;;2.23;2.03;;;;;;;;;;5013389;28;20404;-53
2021/12/31 13:15:02;;;;;;;1.90;1.73;;;;;;;;;;5013156;28;20410;-53
2021/12/31 13:17:28;;;;;;;2.13;1.93;;;;;;;;;;5012609;28;20462;-53
2021/12/31 13:20:04;;;;;;;2.57;1.60;;;;;;;;;;5013532;28;20491;-54
2021/12/31 13:22:34;;;;;;;4.50;2.43;;;;;;;;;;5012948;28;20398;-54
2021/12/31 13:25:00;;;;;;;2.77;2.20;;;;;;;;;;5013012;28;20914;-54
2021/12/31 13:27:29;;;;;;;4.10;2.27;;;;;;;;;;5012608;28;20398;-54
2021/12/31 13:30:06;;;;;;;2.13;1.73;;;;;;;;;;5012952;28;20402;-54
2021/12/31 13:32:38;;;;;;;2.20;2.00;;;;;;;;;;5012957;28;20407;-53
2021/12/31 13:35:06;;;;;;;3.37;1.90;;;;;;;;;;5012736;28;20414;-53
2021/12/31 13:37:38;;;;;;;2.17;2.00;;;;;;;;;;5012519;28;20397;-54
2021/12/31 13:40:14;;;;;;;2.33;2.13;;;;;;;;;;5011130;28;20405;-54
2021/12/31 13:42:41;;;;;;;2.03;1.83;;;;;;;;;;5012583;28;20440;-53
2021/12/31 13:45:18;;;;;;;4.17;2.40;;;;;;;;;;5011246;28;20425;-53
2021/12/31 13:47:43;;;;;;;1.53;1.33;;;;;;;;;;5004946;28;20447;-54
2021/12/31 13:50:10;;;;;;;1.67;1.57;;;;;;;;;;5010763;28;20390;-53
2021/12/31 13:52:43;;;;;;;2.43;2.23;;;;;;;;;;5011423;28;20407;-54
2021/12/31 13:55:19;;;;;;;2.40;2.00;;;;;;;;;;5010961;28;20414;-54
2021/12/31 13:57:53;;;;;;;2.87;1.93;;;;;;;;;;5011900;28;20540;-54
2021/12/31 14:00:23;;;;;;;3.53;1.90;;;;;;;;;;5012249;28;20406;-54
2021/12/31 14:02:53;;;;;;;1.90;1.80;;;;;;;;;;5012298;28;20405;-54
2021/12/31 14:05:20;;;;;;;4.70;1.93;;;;;;;;;;5012108;28;20496;-54
2021/12/31 14:10:20;;;;;;;2.70;1.63;;;;;;;;;;5010849;28;20911;-53
2021/12/31 14:13:07;;;;;;;2.50;1.57;;;;;;;;;;5012243;28;20408;-54
2021/12/31 14:15:33;;;;;;;2.40;2.20;;;;;;;;;;5012075;28;20415;-53
2021/12/31 14:18:07;;;;;;;3.67;1.97;;;;;;;;;;5012529;28;20821;-53
2021/12/31 14:20:38;;;;;;;2.00;1.90;;;;;;;;;;5013034;28;20490;-54
2021/12/31 14:23:04;;;;;;;2.40;2.20;;;;;;;;;;5013217;28;20378;-54
2021/12/31 14:25:31;;;;;;;6.70;2.47;;;;;;;;;;5013121;28;20449;-54
2021/12/31 14:27:57;;;;;;;2.90;2.43;;;;;;;;;;5011133;28;20517;-53
2021/12/31 14:30:24;;;;;;;3.67;3.37;;;;;;;;;;4994542;28;20470;-53
2021/12/31 14:32:50;;;;;;;2.80;2.23;;;;;;;;;;5010325;28;20481;-53
2021/12/31 14:35:22;;;;;;;5.53;2.20;;;;;;;;;;5011412;28;20409;-54
2021/12/31 14:37:48;;;;;;;3.07;2.60;;;;;;;;;;5011200;28;20458;-54
2021/12/31 14:40:18;;;;;;;5.13;2.53;;;;;;;;;;5010960;28;20525;-54
2021/12/31 14:42:44;;;;;;;7.00;2.30;;;;;;;;;;5012020;28;20409;-54
2021/12/31 14:45:11;;;;;;;6.40;2.13;;;;;;;;;;5011857;28;20428;-53
2021/12/31 14:47:39;;;;;;;2.60;2.40;;;;;;;;;;5010130;28;20468;-53
2021/12/31 14:50:05;;;;;;;8.00;2.33;;;;;;;;;;5010198;28;20410;-54
2021/12/31 14:52:32;;;;;;;2.40;2.10;;;;;;;;;;5008877;28;20757;-53
2021/12/31 14:54:58;;;;;;;3.63;2.40;;;;;;;;;;5011654;28;20461;-53